createdAt,value
2022-12-31T00:00:08.793Z,11.5
2022-12-31T00:10:09.925Z,12
2022-12-31T00:20:08.711Z,12
2022-12-31T00:30:08.802Z,12
2022-12-31T00:40:08.698Z,11.5
2022-12-31T00:50:08.768Z,12
2022-12-31T01:00:09.131Z,12
2022-12-31T01:10:08.788Z,11.5
2022-12-31T01:20:08.933Z,11.5
2022-12-31T01:30:08.776Z,11
2022-12-31T01:40:08.881Z,10.5
2022-12-31T01:50:08.741Z,10
2022-12-31T02:00:08.892Z,9.5
2022-12-31T02:10:08.759Z,10.5
2022-12-31T02:20:08.973Z,10.5
2022-12-31T02:30:08.928Z,10.5
2022-12-31T02:40:08.870Z,11
2022-12-31T02:50:08.945Z,10.5
2022-12-31T03:00:08.886Z,10.5
2022-12-31T03:10:08.941Z,10.5
2022-12-31T03:20:08.853Z,11
2022-12-31T03:30:08.922Z,11
2022-12-31T03:40:09.058Z,11
2022-12-31T03:50:08.939Z,11.5
2022-12-31T04:00:09.085Z,11
2022-12-31T04:10:08.918Z,11
2022-12-31T04:20:09.037Z,11.5
2022-12-31T04:30:08.935Z,12
2022-12-31T04:40:09.030Z,12
2022-12-31T04:50:08.895Z,11.5
2022-12-31T05:00:09.042Z,10.5
2022-12-31T05:10:09.106Z,10.5
2022-12-31T05:20:09.048Z,11
2022-12-31T05:30:09.108Z,11
2022-12-31T05:40:09.029Z,11
2022-12-31T05:50:09.102Z,12
2022-12-31T06:00:09.016Z,11.5
2022-12-31T06:10:09.086Z,11
2022-12-31T06:20:13.012Z,11.5
2022-12-31T06:30:09.074Z,10.5
2022-12-31T06:40:09.209Z,11
2022-12-31T06:50:09.072Z,11
2022-12-31T07:00:09.218Z,11
2022-12-31T07:10:09.091Z,10.5
2022-12-31T07:20:09.220Z,10.5
2022-12-31T07:30:09.064Z,11
2022-12-31T07:40:09.176Z,11
2022-12-31T07:50:09.263Z,11
2022-12-31T08:00:09.184Z,11.5
2022-12-31T08:10:14.109Z,11.5
2022-12-31T08:20:09.180Z,11.5
2022-12-31T08:30:09.265Z,11.5
2022-12-31T08:40:09.179Z,11
2022-12-31T08:50:09.271Z,10.5
2022-12-31T09:00:09.203Z,10.5
2022-12-31T09:10:09.269Z,11
2022-12-31T09:20:09.375Z,11
2022-12-31T09:30:09.260Z,11
2022-12-31T09:40:09.438Z,11.5
2022-12-31T09:50:09.261Z,11.5
2022-12-31T10:00:09.386Z,11.5
2022-12-31T10:10:09.259Z,11.5
2022-12-31T10:20:09.360Z,11.5
2022-12-31T10:30:09.444Z,11.5
2022-12-31T10:40:09.451Z,12
2022-12-31T10:50:09.276Z,11.5
2022-12-31T11:00:09.405Z,11.5
2022-12-31T11:10:09.477Z,11.5
2022-12-31T11:20:09.400Z,12
2022-12-31T11:30:09.498Z,11.5
2022-12-31T11:40:09.372Z,11.5
2022-12-31T11:50:09.442Z,11.5
2022-12-31T12:00:09.557Z,12
2022-12-31T12:10:09.450Z,12
2022-12-31T12:20:09.590Z,12.5
2022-12-31T12:30:09.439Z,13
2022-12-31T12:40:09.593Z,13
2022-12-31T12:50:09.435Z,13
2022-12-31T13:00:09.693Z,13
2022-12-31T13:10:09.456Z,12.5
2022-12-31T13:20:09.663Z,13
2022-12-31T13:30:09.439Z,13.5
2022-12-31T13:40:09.603Z,13.5
2022-12-31T13:50:14.363Z,13.5
2022-12-31T14:00:09.622Z,13.5
2022-12-31T14:10:09.695Z,13.5
2022-12-31T14:20:09.551Z,13.5
2022-12-31T14:30:09.608Z,13
2022-12-31T14:40:09.582Z,12.5
2022-12-31T14:50:09.641Z,13
2022-12-31T15:00:09.549Z,12.5
2022-12-31T15:10:09.599Z,13
2022-12-31T15:20:16.593Z,12
2022-12-31T15:30:09.601Z,12
2022-12-31T15:40:09.773Z,12
2022-12-31T15:50:09.617Z,12
2022-12-31T16:00:09.733Z,12.5
2022-12-31T16:10:09.614Z,11.5
2022-12-31T16:20:09.717Z,11.5
2022-12-31T16:30:09.613Z,11.5
2022-12-31T16:40:09.726Z,11.5
2022-12-31T16:50:09.781Z,11.5
2022-12-31T17:00:09.713Z,11.5
2022-12-31T17:10:09.781Z,11.5
2022-12-31T17:20:09.734Z,11.5
2022-12-31T17:30:09.788Z,12
2022-12-31T17:40:49.063Z,11.5
2022-12-31T17:50:09.783Z,12
2022-12-31T18:00:09.906Z,12
2022-12-31T18:10:09.811Z,11.5
2022-12-31T18:20:09.769Z,11.5
2022-12-31T18:30:10.896Z,11.5
2022-12-31T18:40:10.643Z,10.5
2022-12-31T18:50:09.830Z,11.5
2022-12-31T19:00:11.074Z,11.5
2022-12-31T19:10:09.811Z,11.5
2022-12-31T19:20:09.994Z,11
2022-12-31T19:30:09.894Z,12
2022-12-31T19:40:10.012Z,10.5
2022-12-31T19:50:09.860Z,11
2022-12-31T20:00:09.954Z,10.5
2022-12-31T20:10:09.864Z,10.5
2022-12-31T20:20:09.961Z,10.5
2022-12-31T20:30:09.836Z,10.5
2022-12-31T20:40:09.983Z,11
2022-12-31T20:50:11.827Z,10.5
2022-12-31T21:00:09.931Z,11
2022-12-31T21:10:10.032Z,10.5
2022-12-31T21:20:09.957Z,10.5
2022-12-31T21:30:18.947Z,10.5
2022-12-31T21:40:09.963Z,10.5
2022-12-31T21:50:10.019Z,10.5
2022-12-31T22:00:40.151Z,11
2022-12-31T22:10:10.032Z,11
2022-12-31T22:20:26.860Z,10.5
2022-12-31T22:30:10.010Z,10.5
2022-12-31T22:40:10.145Z,10.5
2022-12-31T22:50:10.034Z,11
2022-12-31T23:00:10.150Z,10.5
2022-12-31T23:10:10.008Z,10.5
2022-12-31T23:20:10.135Z,11
2022-12-31T23:30:09.995Z,10.5
2022-12-31T23:40:11.552Z,10.5
2022-12-31T23:50:10.219Z,11
